sensor_id;sensor_type;location;lat;lon;timestamp;P1;durP1;ratioP1;P2;durP2;ratioP2
72109;SDS011;59983;52.010;5.420;2022-08-14T00:01:00;8.63;;;7.88;;
72109;SDS011;59983;52.010;5.420;2022-08-14T00:03:37;7.30;;;6.70;;
72109;SDS011;59983;52.010;5.420;2022-08-14T00:06:06;9.07;;;7.78;;
72109;SDS011;59983;52.010;5.420;2022-08-14T00:08:51;8.18;;;7.30;;
72109;SDS011;59983;52.010;5.420;2022-08-14T00:11:18;7.82;;;7.03;;
72109;SDS011;59983;52.010;5.420;2022-08-14T00:13:46;9.43;;;7.00;;
72109;SDS011;59983;52.010;5.420;2022-08-14T00:16:18;7.73;;;7.13;;
72109;SDS011;59983;52.010;5.420;2022-08-14T00:19:05;7.82;;;7.30;;
72109;SDS011;59983;52.010;5.420;2022-08-14T00:21:47;8.50;;;8.00;;
72109;SDS011;59983;52.010;5.420;2022-08-14T00:24:16;8.90;;;8.00;;
72109;SDS011;59983;52.010;5.420;2022-08-14T00:26:57;9.50;;;8.70;;
72109;SDS011;59983;52.010;5.420;2022-08-14T00:29:31;9.77;;;8.87;;
72109;SDS011;59983;52.010;5.420;2022-08-14T00:32:05;9.38;;;8.68;;
72109;SDS011;59983;52.010;5.420;2022-08-14T00:34:52;9.40;;;8.80;;
72109;SDS011;59983;52.010;5.420;2022-08-14T00:37:19;15.88;;;9.20;;
72109;SDS011;59983;52.010;5.420;2022-08-14T00:39:45;13.57;;;9.88;;
72109;SDS011;59983;52.010;5.420;2022-08-14T00:42:17;9.43;;;8.73;;
72109;SDS011;59983;52.010;5.420;2022-08-14T00:45:05;9.63;;;9.02;;
72109;SDS011;59983;52.010;5.420;2022-08-14T00:47:36;10.65;;;9.75;;
72109;SDS011;59983;52.010;5.420;2022-08-14T00:50:11;12.40;;;9.38;;
72109;SDS011;59983;52.010;5.420;2022-08-14T00:52:47;12.80;;;9.95;;
72109;SDS011;59983;52.010;5.420;2022-08-14T00:55:16;10.10;;;9.30;;
72109;SDS011;59983;52.010;5.420;2022-08-14T00:57:45;10.23;;;9.27;;
72109;SDS011;59983;52.010;5.420;2022-08-14T01:00:32;10.38;;;9.60;;
72109;SDS011;59983;52.010;5.420;2022-08-14T01:03:12;10.50;;;9.70;;
72109;SDS011;59983;52.010;5.420;2022-08-14T01:05:43;10.82;;;9.57;;
72109;SDS011;59983;52.010;5.420;2022-08-14T01:08:18;10.40;;;9.60;;
72109;SDS011;59983;52.010;5.420;2022-08-14T01:11:07;13.02;;;8.90;;
72109;SDS011;59983;52.010;5.420;2022-08-14T01:13:38;10.45;;;9.65;;
72109;SDS011;59983;52.010;5.420;2022-08-14T01:16:09;10.15;;;9.18;;
72109;SDS011;59983;52.010;5.420;2022-08-14T01:18:40;10.35;;;8.98;;
72109;SDS011;59983;52.010;5.420;2022-08-14T01:21:31;10.17;;;9.20;;
72109;SDS011;59983;52.010;5.420;2022-08-14T01:24:04;10.65;;;9.70;;
72109;SDS011;59983;52.010;5.420;2022-08-14T01:26:36;10.02;;;9.23;;
72109;SDS011;59983;52.010;5.420;2022-08-14T01:29:04;10.30;;;9.50;;
72109;SDS011;59983;52.010;5.420;2022-08-14T01:31:33;11.65;;;9.65;;
72109;SDS011;59983;52.010;5.420;2022-08-14T01:34:15;9.73;;;9.00;;
72109;SDS011;59983;52.010;5.420;2022-08-14T01:37:02;8.73;;;8.10;;
72109;SDS011;59983;52.010;5.420;2022-08-14T01:39:32;10.10;;;9.30;;
72109;SDS011;59983;52.010;5.420;2022-08-14T01:42:03;8.60;;;8.10;;
72109;SDS011;59983;52.010;5.420;2022-08-14T01:44:33;9.27;;;8.57;;
72109;SDS011;59983;52.010;5.420;2022-08-14T01:47:07;8.27;;;7.57;;
72109;SDS011;59983;52.010;5.420;2022-08-14T01:49:47;7.43;;;6.88;;
72109;SDS011;59983;52.010;5.420;2022-08-14T01:52:29;6.85;;;6.40;;
72109;SDS011;59983;52.010;5.420;2022-08-14T01:55:17;6.88;;;6.38;;
72109;SDS011;59983;52.010;5.420;2022-08-14T01:57:44;7.93;;;7.13;;
72109;SDS011;59983;52.010;5.420;2022-08-14T02:00:31;9.30;;;8.53;;
72109;SDS011;59983;52.010;5.420;2022-08-14T02:03:01;10.50;;;7.95;;
72109;SDS011;59983;52.010;5.420;2022-08-14T02:05:32;9.30;;;8.57;;
72109;SDS011;59983;52.010;5.420;2022-08-14T02:08:04;9.68;;;8.82;;
72109;SDS011;59983;52.010;5.420;2022-08-14T02:10:35;9.25;;;8.43;;
72109;SDS011;59983;52.010;5.420;2022-08-14T02:13:13;8.90;;;8.20;;
72109;SDS011;59983;52.010;5.420;2022-08-14T02:15:44;9.05;;;8.35;;
72109;SDS011;59983;52.010;5.420;2022-08-14T02:18:13;8.32;;;7.70;;
72109;SDS011;59983;52.010;5.420;2022-08-14T02:20:40;8.73;;;7.97;;
72109;SDS011;59983;52.010;5.420;2022-08-14T02:23:07;9.45;;;8.65;;
72109;SDS011;59983;52.010;5.420;2022-08-14T02:25:36;9.10;;;7.57;;
72109;SDS011;59983;52.010;5.420;2022-08-14T02:28:04;8.82;;;8.00;;
72109;SDS011;59983;52.010;5.420;2022-08-14T02:30:51;8.85;;;8.10;;
72109;SDS011;59983;52.010;5.420;2022-08-14T02:33:18;10.63;;;8.93;;
72109;SDS011;59983;52.010;5.420;2022-08-14T02:35:46;10.32;;;9.45;;
72109;SDS011;59983;52.010;5.420;2022-08-14T02:38:25;9.80;;;9.00;;
72109;SDS011;59983;52.010;5.420;2022-08-14T02:40:59;13.45;;;8.45;;
72109;SDS011;59983;52.010;5.420;2022-08-14T02:43:26;9.30;;;8.70;;
72109;SDS011;59983;52.010;5.420;2022-08-14T02:46:02;9.55;;;8.70;;
72109;SDS011;59983;52.010;5.420;2022-08-14T02:48:29;10.05;;;9.25;;
72109;SDS011;59983;52.010;5.420;2022-08-14T02:51:21;9.73;;;9.03;;
72109;SDS011;59983;52.010;5.420;2022-08-14T02:53:48;10.57;;;9.25;;
72109;SDS011;59983;52.010;5.420;2022-08-14T02:56:17;9.55;;;8.55;;
72109;SDS011;59983;52.010;5.420;2022-08-14T02:58:56;9.52;;;8.82;;
72109;SDS011;59983;52.010;5.420;2022-08-14T03:01:31;10.93;;;10.13;;
72109;SDS011;59983;52.010;5.420;2022-08-14T03:04:16;8.93;;;8.30;;
72109;SDS011;59983;52.010;5.420;2022-08-14T03:06:46;9.60;;;8.80;;
72109;SDS011;59983;52.010;5.420;2022-08-14T03:09:23;9.80;;;9.00;;
72109;SDS011;59983;52.010;5.420;2022-08-14T03:12:07;9.75;;;8.80;;
72109;SDS011;59983;52.010;5.420;2022-08-14T03:14:34;9.65;;;8.75;;
72109;SDS011;59983;52.010;5.420;2022-08-14T03:17:10;9.20;;;8.40;;
72109;SDS011;59983;52.010;5.420;2022-08-14T03:19:42;9.98;;;9.10;;
72109;SDS011;59983;52.010;5.420;2022-08-14T03:22:09;10.45;;;9.65;;
72109;SDS011;59983;52.010;5.420;2022-08-14T03:24:43;10.07;;;9.27;;
72109;SDS011;59983;52.010;5.420;2022-08-14T03:27:10;10.77;;;9.98;;
72109;SDS011;59983;52.010;5.420;2022-08-14T03:29:39;10.63;;;9.93;;
72109;SDS011;59983;52.010;5.420;2022-08-14T03:32:06;10.63;;;9.82;;
72109;SDS011;59983;52.010;5.420;2022-08-14T03:34:33;11.18;;;10.27;;
72109;SDS011;59983;52.010;5.420;2022-08-14T03:37:13;11.13;;;10.05;;
72109;SDS011;59983;52.010;5.420;2022-08-14T03:39:59;10.63;;;9.73;;
72109;SDS011;59983;52.010;5.420;2022-08-14T03:42:26;10.80;;;9.97;;
72109;SDS011;59983;52.010;5.420;2022-08-14T03:45:01;11.07;;;10.07;;
72109;SDS011;59983;52.010;5.420;2022-08-14T03:47:48;11.13;;;10.23;;
72109;SDS011;59983;52.010;5.420;2022-08-14T03:50:24;12.77;;;9.70;;
72109;SDS011;59983;52.010;5.420;2022-08-14T03:52:56;10.55;;;9.65;;
72109;SDS011;59983;52.010;5.420;2022-08-14T03:55:25;11.33;;;10.33;;
72109;SDS011;59983;52.010;5.420;2022-08-14T03:57:55;11.63;;;10.52;;
72109;SDS011;59983;52.010;5.420;2022-08-14T04:00:22;11.35;;;10.23;;
72109;SDS011;59983;52.010;5.420;2022-08-14T04:03:09;10.25;;;9.45;;
72109;SDS011;59983;52.010;5.420;2022-08-14T04:05:41;11.68;;;10.82;;
72109;SDS011;59983;52.010;5.420;2022-08-14T04:08:14;11.63;;;10.47;;
72109;SDS011;59983;52.010;5.420;2022-08-14T04:10:56;11.68;;;10.70;;
72109;SDS011;59983;52.010;5.420;2022-08-14T04:13:26;10.63;;;9.80;;
72109;SDS011;59983;52.010;5.420;2022-08-14T04:16:07;11.68;;;10.68;;
72109;SDS011;59983;52.010;5.420;2022-08-14T04:18:39;12.73;;;11.45;;
72109;SDS011;59983;52.010;5.420;2022-08-14T04:21:07;11.53;;;10.57;;
72109;SDS011;59983;52.010;5.420;2022-08-14T04:23:35;12.10;;;10.85;;
72109;SDS011;59983;52.010;5.420;2022-08-14T04:26:05;13.43;;;12.13;;
72109;SDS011;59983;52.010;5.420;2022-08-14T04:28:52;11.80;;;10.73;;
72109;SDS011;59983;52.010;5.420;2022-08-14T04:31:39;12.45;;;11.35;;
72109;SDS011;59983;52.010;5.420;2022-08-14T04:34:25;11.07;;;10.23;;
72109;SDS011;59983;52.010;5.420;2022-08-14T04:36:53;11.88;;;10.65;;
72109;SDS011;59983;52.010;5.420;2022-08-14T04:39:47;13.55;;;11.15;;
72109;SDS011;59983;52.010;5.420;2022-08-14T04:42:34;12.52;;;10.88;;
72109;SDS011;59983;52.010;5.420;2022-08-14T04:45:20;12.88;;;11.88;;
72109;SDS011;59983;52.010;5.420;2022-08-14T04:47:54;12.67;;;11.57;;
72109;SDS011;59983;52.010;5.420;2022-08-14T04:50:59;11.75;;;10.85;;
72109;SDS011;59983;52.010;5.420;2022-08-14T04:53:28;12.60;;;11.52;;
72109;SDS011;59983;52.010;5.420;2022-08-14T04:56:01;12.10;;;10.93;;
72109;SDS011;59983;52.010;5.420;2022-08-14T04:58:31;11.65;;;10.57;;
72109;SDS011;59983;52.010;5.420;2022-08-14T05:01:00;11.97;;;10.83;;
72109;SDS011;59983;52.010;5.420;2022-08-14T05:03:30;13.95;;;11.98;;
72109;SDS011;59983;52.010;5.420;2022-08-14T05:05:59;12.75;;;11.63;;
72109;SDS011;59983;52.010;5.420;2022-08-14T05:08:28;12.60;;;11.32;;
72109;SDS011;59983;52.010;5.420;2022-08-14T05:11:15;11.73;;;10.77;;
72109;SDS011;59983;52.010;5.420;2022-08-14T05:13:45;11.57;;;10.67;;
72109;SDS011;59983;52.010;5.420;2022-08-14T05:16:31;11.50;;;10.50;;
72109;SDS011;59983;52.010;5.420;2022-08-14T05:18:58;12.52;;;11.38;;
72109;SDS011;59983;52.010;5.420;2022-08-14T05:21:45;12.10;;;11.00;;
72109;SDS011;59983;52.010;5.420;2022-08-14T05:24:31;12.98;;;11.68;;
72109;SDS011;59983;52.010;5.420;2022-08-14T05:26:58;12.10;;;11.00;;
72109;SDS011;59983;52.010;5.420;2022-08-14T05:29:25;11.85;;;10.73;;
72109;SDS011;59983;52.010;5.420;2022-08-14T05:31:52;12.45;;;11.23;;
72109;SDS011;59983;52.010;5.420;2022-08-14T05:34:23;12.23;;;10.93;;
72109;SDS011;59983;52.010;5.420;2022-08-14T05:36:57;15.05;;;11.77;;
72109;SDS011;59983;52.010;5.420;2022-08-14T05:39:28;11.93;;;10.90;;
72109;SDS011;59983;52.010;5.420;2022-08-14T05:41:56;11.25;;;10.25;;
72109;SDS011;59983;52.010;5.420;2022-08-14T05:44:23;11.93;;;10.90;;
72109;SDS011;59983;52.010;5.420;2022-08-14T05:46:55;11.00;;;10.10;;
72109;SDS011;59983;52.010;5.420;2022-08-14T05:49:22;11.38;;;10.40;;
72109;SDS011;59983;52.010;5.420;2022-08-14T05:51:58;11.73;;;10.83;;
72109;SDS011;59983;52.010;5.420;2022-08-14T05:54:27;11.48;;;10.40;;
72109;SDS011;59983;52.010;5.420;2022-08-14T05:57:01;10.20;;;9.45;;
72109;SDS011;59983;52.010;5.420;2022-08-14T05:59:29;11.50;;;10.50;;
72109;SDS011;59983;52.010;5.420;2022-08-14T06:02:05;16.38;;;9.93;;
72109;SDS011;59983;52.010;5.420;2022-08-14T06:04:37;11.40;;;10.40;;
72109;SDS011;59983;52.010;5.420;2022-08-14T06:07:04;11.02;;;10.07;;
72109;SDS011;59983;52.010;5.420;2022-08-14T06:09:31;11.05;;;9.98;;
72109;SDS011;59983;52.010;5.420;2022-08-14T06:12:08;10.68;;;9.75;;
72109;SDS011;59983;52.010;5.420;2022-08-14T06:14:37;10.95;;;9.95;;
72109;SDS011;59983;52.010;5.420;2022-08-14T06:17:04;12.20;;;10.87;;
72109;SDS011;59983;52.010;5.420;2022-08-14T06:19:31;12.70;;;11.55;;
72109;SDS011;59983;52.010;5.420;2022-08-14T06:21:58;9.82;;;9.00;;
72109;SDS011;59983;52.010;5.420;2022-08-14T06:24:25;9.70;;;8.60;;
72109;SDS011;59983;52.010;5.420;2022-08-14T06:26:55;11.27;;;10.15;;
72109;SDS011;59983;52.010;5.420;2022-08-14T06:29:31;8.90;;;8.20;;
72109;SDS011;59983;52.010;5.420;2022-08-14T06:32:00;9.80;;;8.98;;
72109;SDS011;59983;52.010;5.420;2022-08-14T06:34:48;9.55;;;8.85;;
72109;SDS011;59983;52.010;5.420;2022-08-14T06:37:54;9.15;;;8.45;;
72109;SDS011;59983;52.010;5.420;2022-08-14T06:40:26;9.02;;;8.10;;
72109;SDS011;59983;52.010;5.420;2022-08-14T06:43:00;10.40;;;8.73;;
72109;SDS011;59983;52.010;5.420;2022-08-14T06:45:32;9.57;;;8.60;;
72109;SDS011;59983;52.010;5.420;2022-08-14T06:48:01;12.68;;;9.07;;
72109;SDS011;59983;52.010;5.420;2022-08-14T06:50:37;8.45;;;7.72;;
72109;SDS011;59983;52.010;5.420;2022-08-14T06:53:04;10.18;;;9.35;;
72109;SDS011;59983;52.010;5.420;2022-08-14T06:55:30;13.17;;;8.47;;
72109;SDS011;59983;52.010;5.420;2022-08-14T06:57:57;8.93;;;8.32;;
72109;SDS011;59983;52.010;5.420;2022-08-14T07:00:25;12.25;;;8.05;;
72109;SDS011;59983;52.010;5.420;2022-08-14T07:02:56;9.35;;;8.65;;
72109;SDS011;59983;52.010;5.420;2022-08-14T07:05:42;10.32;;;9.43;;
72109;SDS011;59983;52.010;5.420;2022-08-14T07:08:28;8.90;;;8.10;;
72109;SDS011;59983;52.010;5.420;2022-08-14T07:11:00;9.02;;;7.97;;
72109;SDS011;59983;52.010;5.420;2022-08-14T07:13:30;9.40;;;8.70;;
72109;SDS011;59983;52.010;5.420;2022-08-14T07:15:58;8.90;;;8.10;;
72109;SDS011;59983;52.010;5.420;2022-08-14T07:18:31;8.70;;;8.00;;
72109;SDS011;59983;52.010;5.420;2022-08-14T07:21:00;9.10;;;8.40;;
72109;SDS011;59983;52.010;5.420;2022-08-14T07:23:27;9.52;;;7.47;;
72109;SDS011;59983;52.010;5.420;2022-08-14T07:25:57;8.85;;;8.05;;
72109;SDS011;59983;52.010;5.420;2022-08-14T07:28:25;7.35;;;6.80;;
72109;SDS011;59983;52.010;5.420;2022-08-14T07:30:53;8.65;;;7.85;;
72109;SDS011;59983;52.010;5.420;2022-08-14T07:33:35;7.40;;;6.80;;
72109;SDS011;59983;52.010;5.420;2022-08-14T07:36:09;8.30;;;7.68;;
72109;SDS011;59983;52.010;5.420;2022-08-14T07:38:57;8.57;;;7.57;;
72109;SDS011;59983;52.010;5.420;2022-08-14T07:41:25;8.13;;;7.30;;
72109;SDS011;59983;52.010;5.420;2022-08-14T07:43:59;8.15;;;7.38;;
72109;SDS011;59983;52.010;5.420;2022-08-14T07:46:46;7.77;;;7.17;;
72109;SDS011;59983;52.010;5.420;2022-08-14T07:49:14;7.50;;;7.00;;
72109;SDS011;59983;52.010;5.420;2022-08-14T07:51:43;7.93;;;7.32;;
72109;SDS011;59983;52.010;5.420;2022-08-14T07:54:10;12.57;;;7.65;;
72109;SDS011;59983;52.010;5.420;2022-08-14T07:56:41;7.50;;;6.72;;
72109;SDS011;59983;52.010;5.420;2022-08-14T07:59:15;8.50;;;7.60;;
72109;SDS011;59983;52.010;5.420;2022-08-14T08:01:43;7.78;;;7.03;;
72109;SDS011;59983;52.010;5.420;2022-08-14T08:04:16;8.13;;;6.90;;
72109;SDS011;59983;52.010;5.420;2022-08-14T08:06:49;8.18;;;7.40;;
72109;SDS011;59983;52.010;5.420;2022-08-14T08:09:18;7.07;;;6.57;;
72109;SDS011;59983;52.010;5.420;2022-08-14T08:11:58;7.67;;;6.77;;
72109;SDS011;59983;52.010;5.420;2022-08-14T08:14:31;8.00;;;6.63;;
72109;SDS011;59983;52.010;5.420;2022-08-14T08:17:19;7.75;;;7.05;;
72109;SDS011;59983;52.010;5.420;2022-08-14T08:19:49;10.10;;;7.40;;
72109;SDS011;59983;52.010;5.420;2022-08-14T08:22:17;8.02;;;7.25;;
72109;SDS011;59983;52.010;5.420;2022-08-14T08:24:47;7.77;;;6.57;;
72109;SDS011;59983;52.010;5.420;2022-08-14T08:27:16;7.40;;;6.70;;
72109;SDS011;59983;52.010;5.420;2022-08-14T08:29:46;9.68;;;6.75;;
72109;SDS011;59983;52.010;5.420;2022-08-14T08:32:16;7.18;;;6.60;;
72109;SDS011;59983;52.010;5.420;2022-08-14T08:34:43;9.75;;;6.80;;
72109;SDS011;59983;52.010;5.420;2022-08-14T08:37:12;7.13;;;6.43;;
72109;SDS011;59983;52.010;5.420;2022-08-14T08:39:46;7.22;;;6.57;;
72109;SDS011;59983;52.010;5.420;2022-08-14T08:42:29;7.70;;;6.30;;
72109;SDS011;59983;52.010;5.420;2022-08-14T08:45:09;7.47;;;6.75;;
72109;SDS011;59983;52.010;5.420;2022-08-14T08:47:40;6.85;;;6.25;;
72109;SDS011;59983;52.010;5.420;2022-08-14T08:50:17;6.83;;;6.23;;
72109;SDS011;59983;52.010;5.420;2022-08-14T08:52:57;7.45;;;6.82;;
72109;SDS011;59983;52.010;5.420;2022-08-14T08:58:04;8.52;;;6.38;;
72109;SDS011;59983;52.010;5.420;2022-08-14T09:00:46;9.10;;;6.70;;
72109;SDS011;59983;52.010;5.420;2022-08-14T09:03:16;7.67;;;7.00;;
72109;SDS011;59983;52.010;5.420;2022-08-14T09:08:28;8.07;;;7.28;;
72109;SDS011;59983;52.010;5.420;2022-08-14T09:10:59;7.05;;;6.18;;
72109;SDS011;59983;52.010;5.420;2022-08-14T09:13:47;7.57;;;6.28;;
72109;SDS011;59983;52.010;5.420;2022-08-14T09:16:16;8.70;;;6.90;;
72109;SDS011;59983;52.010;5.420;2022-08-14T09:18:47;7.47;;;6.78;;
72109;SDS011;59983;52.010;5.420;2022-08-14T09:21:13;6.35;;;5.85;;
72109;SDS011;59983;52.010;5.420;2022-08-14T09:23:41;8.48;;;6.82;;
72109;SDS011;59983;52.010;5.420;2022-08-14T09:26:28;7.35;;;6.53;;
72109;SDS011;59983;52.010;5.420;2022-08-14T09:28:57;7.33;;;6.83;;
72109;SDS011;59983;52.010;5.420;2022-08-14T09:31:24;6.32;;;5.82;;
72109;SDS011;59983;52.010;5.420;2022-08-14T09:34:20;7.53;;;6.47;;
72109;SDS011;59983;52.010;5.420;2022-08-14T09:37:06;7.22;;;6.45;;
72109;SDS011;59983;52.010;5.420;2022-08-14T09:39:54;8.82;;;6.78;;
72109;SDS011;59983;52.010;5.420;2022-08-14T09:42:51;7.37;;;6.60;;
72109;SDS011;59983;52.010;5.420;2022-08-14T09:48:12;6.85;;;6.10;;
72109;SDS011;59983;52.010;5.420;2022-08-14T09:50:56;6.97;;;6.47;;
72109;SDS011;59983;52.010;5.420;2022-08-14T09:56:19;6.30;;;5.80;;
72109;SDS011;59983;52.010;5.420;2022-08-14T09:58:56;6.13;;;5.72;;
72109;SDS011;59983;52.010;5.420;2022-08-14T10:01:33;9.23;;;6.07;;
72109;SDS011;59983;52.010;5.420;2022-08-14T10:04:04;6.38;;;5.85;;
72109;SDS011;59983;52.010;5.420;2022-08-14T10:07:03;6.32;;;5.72;;
72109;SDS011;59983;52.010;5.420;2022-08-14T10:09:30;6.10;;;5.60;;
72109;SDS011;59983;52.010;5.420;2022-08-14T10:12:00;6.13;;;5.60;;
72109;SDS011;59983;52.010;5.420;2022-08-14T10:14:32;8.05;;;5.65;;
72109;SDS011;59983;52.010;5.420;2022-08-14T10:17:03;7.15;;;5.30;;
72109;SDS011;59983;52.010;5.420;2022-08-14T10:19:32;6.13;;;5.53;;
72109;SDS011;59983;52.010;5.420;2022-08-14T10:22:07;8.00;;;5.63;;
72109;SDS011;59983;52.010;5.420;2022-08-14T10:24:55;5.88;;;5.38;;
72109;SDS011;59983;52.010;5.420;2022-08-14T10:27:25;5.30;;;4.78;;
72109;SDS011;59983;52.010;5.420;2022-08-14T10:29:54;5.20;;;4.70;;
72109;SDS011;59983;52.010;5.420;2022-08-14T10:32:26;8.10;;;5.03;;
72109;SDS011;59983;52.010;5.420;2022-08-14T10:35:08;5.50;;;4.97;;
72109;SDS011;59983;52.010;5.420;2022-08-14T10:37:46;5.43;;;4.93;;
72109;SDS011;59983;52.010;5.420;2022-08-14T10:40:15;5.00;;;4.60;;
72109;SDS011;59983;52.010;5.420;2022-08-14T10:43:16;6.00;;;4.60;;
72109;SDS011;59983;52.010;5.420;2022-08-14T10:45:58;5.38;;;4.97;;
72109;SDS011;59983;52.010;5.420;2022-08-14T10:48:56;8.30;;;5.10;;
72109;SDS011;59983;52.010;5.420;2022-08-14T10:51:27;8.98;;;4.50;;
72109;SDS011;59983;52.010;5.420;2022-08-14T10:53:56;4.93;;;4.32;;
72109;SDS011;59983;52.010;5.420;2022-08-14T10:56:30;4.53;;;4.13;;
72109;SDS011;59983;52.010;5.420;2022-08-14T10:59:03;5.25;;;4.75;;
72109;SDS011;59983;52.010;5.420;2022-08-14T11:01:34;4.87;;;4.57;;
72109;SDS011;59983;52.010;5.420;2022-08-14T11:04:17;4.50;;;4.05;;
72109;SDS011;59983;52.010;5.420;2022-08-14T11:06:51;4.90;;;4.60;;
72109;SDS011;59983;52.010;5.420;2022-08-14T11:09:19;6.25;;;4.32;;
72109;SDS011;59983;52.010;5.420;2022-08-14T11:11:47;7.75;;;3.95;;
72109;SDS011;59983;52.010;5.420;2022-08-14T11:14:40;5.20;;;4.17;;
72109;SDS011;59983;52.010;5.420;2022-08-14T11:17:08;6.63;;;4.47;;
72109;SDS011;59983;52.010;5.420;2022-08-14T11:19:34;7.63;;;4.70;;
72109;SDS011;59983;52.010;5.420;2022-08-14T11:22:03;6.80;;;4.53;;
72109;SDS011;59983;52.010;5.420;2022-08-14T11:24:31;5.35;;;4.97;;
72109;SDS011;59983;52.010;5.420;2022-08-14T11:27:20;4.43;;;4.10;;
72109;SDS011;59983;52.010;5.420;2022-08-14T11:30:01;4.88;;;4.10;;
72109;SDS011;59983;52.010;5.420;2022-08-14T11:32:52;4.20;;;3.90;;
72109;SDS011;59983;52.010;5.420;2022-08-14T11:35:21;6.47;;;3.92;;
72109;SDS011;59983;52.010;5.420;2022-08-14T11:38:02;4.15;;;3.75;;
72109;SDS011;59983;52.010;5.420;2022-08-14T11:40:32;4.27;;;3.97;;
72109;SDS011;59983;52.010;5.420;2022-08-14T11:43:04;4.10;;;3.67;;
72109;SDS011;59983;52.010;5.420;2022-08-14T11:45:34;7.68;;;3.75;;
72109;SDS011;59983;52.010;5.420;2022-08-14T11:48:15;3.80;;;3.60;;
72109;SDS011;59983;52.010;5.420;2022-08-14T11:51:02;4.40;;;3.90;;
72109;SDS011;59983;52.010;5.420;2022-08-14T11:53:38;4.93;;;4.53;;
72109;SDS011;59983;52.010;5.420;2022-08-14T11:56:07;3.80;;;3.60;;
72109;SDS011;59983;52.010;5.420;2022-08-14T11:58:36;3.60;;;3.30;;
72109;SDS011;59983;52.010;5.420;2022-08-14T12:01:04;5.88;;;3.65;;
72109;SDS011;59983;52.010;5.420;2022-08-14T12:03:38;3.38;;;3.17;;
72109;SDS011;59983;52.010;5.420;2022-08-14T12:06:21;3.97;;;3.20;;
72109;SDS011;59983;52.010;5.420;2022-08-14T12:09:00;3.33;;;2.90;;
72109;SDS011;59983;52.010;5.420;2022-08-14T12:11:36;5.78;;;3.33;;
72109;SDS011;59983;52.010;5.420;2022-08-14T12:14:13;3.50;;;3.20;;
72109;SDS011;59983;52.010;5.420;2022-08-14T12:17:04;4.00;;;3.63;;
72109;SDS011;59983;52.010;5.420;2022-08-14T12:19:42;4.83;;;3.00;;
72109;SDS011;59983;52.010;5.420;2022-08-14T12:22:19;3.92;;;2.88;;
72109;SDS011;59983;52.010;5.420;2022-08-14T12:24:59;3.25;;;2.95;;
72109;SDS011;59983;52.010;5.420;2022-08-14T12:27:37;3.42;;;3.10;;
72109;SDS011;59983;52.010;5.420;2022-08-14T12:30:07;5.80;;;3.20;;
72109;SDS011;59983;52.010;5.420;2022-08-14T12:32:40;2.87;;;2.67;;
72109;SDS011;59983;52.010;5.420;2022-08-14T12:35:09;5.72;;;4.03;;
72109;SDS011;59983;52.010;5.420;2022-08-14T12:37:37;4.55;;;2.90;;
72109;SDS011;59983;52.010;5.420;2022-08-14T12:40:09;3.28;;;2.72;;
72109;SDS011;59983;52.010;5.420;2022-08-14T12:42:46;2.53;;;2.33;;
72109;SDS011;59983;52.010;5.420;2022-08-14T12:45:27;2.97;;;2.67;;
72109;SDS011;59983;52.010;5.420;2022-08-14T12:48:03;3.45;;;3.15;;
72109;SDS011;59983;52.010;5.420;2022-08-14T12:50:51;4.68;;;2.50;;
72109;SDS011;59983;52.010;5.420;2022-08-14T12:53:18;3.88;;;3.00;;
72109;SDS011;59983;52.010;5.420;2022-08-14T12:55:57;3.00;;;2.80;;
72109;SDS011;59983;52.010;5.420;2022-08-14T12:58:47;3.40;;;2.70;;
72109;SDS011;59983;52.010;5.420;2022-08-14T13:01:18;3.28;;;2.42;;
72109;SDS011;59983;52.010;5.420;2022-08-14T13:03:47;5.43;;;2.50;;
72109;SDS011;59983;52.010;5.420;2022-08-14T13:06:17;2.65;;;2.45;;
72109;SDS011;59983;52.010;5.420;2022-08-14T13:08:45;3.80;;;2.47;;
72109;SDS011;59983;52.010;5.420;2022-08-14T13:11:18;3.13;;;2.53;;
72109;SDS011;59983;52.010;5.420;2022-08-14T13:13:49;2.78;;;2.45;;
72109;SDS011;59983;52.010;5.420;2022-08-14T13:16:23;4.28;;;2.90;;
72109;SDS011;59983;52.010;5.420;2022-08-14T13:19:03;3.35;;;2.75;;
72109;SDS011;59983;52.010;5.420;2022-08-14T13:21:37;3.17;;;2.45;;
72109;SDS011;59983;52.010;5.420;2022-08-14T13:24:24;3.27;;;3.00;;
72109;SDS011;59983;52.010;5.420;2022-08-14T13:26:53;3.55;;;2.67;;
72109;SDS011;59983;52.010;5.420;2022-08-14T13:29:27;4.88;;;2.65;;
72109;SDS011;59983;52.010;5.420;2022-08-14T13:31:56;3.15;;;2.55;;
72109;SDS011;59983;52.010;5.420;2022-08-14T13:34:24;3.92;;;2.60;;
72109;SDS011;59983;52.010;5.420;2022-08-14T13:36:53;3.37;;;2.63;;
72109;SDS011;59983;52.010;5.420;2022-08-14T13:39:29;3.17;;;2.85;;
72109;SDS011;59983;52.010;5.420;2022-08-14T13:42:02;5.60;;;2.92;;
72109;SDS011;59983;52.010;5.420;2022-08-14T13:44:38;3.15;;;2.85;;
72109;SDS011;59983;52.010;5.420;2022-08-14T13:47:08;2.80;;;2.60;;
72109;SDS011;59983;52.010;5.420;2022-08-14T13:49:36;3.87;;;3.00;;
72109;SDS011;59983;52.010;5.420;2022-08-14T13:52:05;7.70;;;3.00;;
72109;SDS011;59983;52.010;5.420;2022-08-14T13:54:57;2.90;;;2.70;;
72109;SDS011;59983;52.010;5.420;2022-08-14T13:57:26;3.15;;;2.95;;
72109;SDS011;59983;52.010;5.420;2022-08-14T13:59:56;4.00;;;2.60;;
72109;SDS011;59983;52.010;5.420;2022-08-14T14:02:30;3.60;;;2.87;;
72109;SDS011;59983;52.010;5.420;2022-08-14T14:05:01;3.10;;;2.88;;
72109;SDS011;59983;52.010;5.420;2022-08-14T14:07:29;3.55;;;3.03;;
72109;SDS011;59983;52.010;5.420;2022-08-14T14:10:06;3.10;;;2.90;;
72109;SDS011;59983;52.010;5.420;2022-08-14T14:12:35;3.58;;;3.25;;
72109;SDS011;59983;52.010;5.420;2022-08-14T14:15:07;3.40;;;3.10;;
72109;SDS011;59983;52.010;5.420;2022-08-14T14:17:39;3.38;;;3.17;;
72109;SDS011;59983;52.010;5.420;2022-08-14T14:20:12;3.30;;;3.00;;
72109;SDS011;59983;52.010;5.420;2022-08-14T14:23:01;3.28;;;3.08;;
72109;SDS011;59983;52.010;5.420;2022-08-14T14:25:38;3.90;;;3.00;;
72109;SDS011;59983;52.010;5.420;2022-08-14T14:28:14;3.97;;;3.40;;
72109;SDS011;59983;52.010;5.420;2022-08-14T14:30:49;3.53;;;3.05;;
72109;SDS011;59983;52.010;5.420;2022-08-14T14:33:22;7.05;;;3.42;;
72109;SDS011;59983;52.010;5.420;2022-08-14T14:36:09;3.88;;;3.58;;
72109;SDS011;59983;52.010;5.420;2022-08-14T14:38:39;3.83;;;3.08;;
72109;SDS011;59983;52.010;5.420;2022-08-14T14:41:10;3.80;;;3.50;;
72109;SDS011;59983;52.010;5.420;2022-08-14T14:43:40;3.40;;;3.20;;
72109;SDS011;59983;52.010;5.420;2022-08-14T14:46:12;4.85;;;3.47;;
72109;SDS011;59983;52.010;5.420;2022-08-14T14:48:42;3.65;;;3.28;;
72109;SDS011;59983;52.010;5.420;2022-08-14T14:51:19;3.83;;;3.53;;
72109;SDS011;59983;52.010;5.420;2022-08-14T14:53:47;3.57;;;3.27;;
72109;SDS011;59983;52.010;5.420;2022-08-14T14:56:14;3.47;;;3.17;;
72109;SDS011;59983;52.010;5.420;2022-08-14T14:59:00;4.63;;;3.38;;
72109;SDS011;59983;52.010;5.420;2022-08-14T15:01:27;3.40;;;3.20;;
72109;SDS011;59983;52.010;5.420;2022-08-14T15:03:53;3.70;;;3.42;;
72109;SDS011;59983;52.010;5.420;2022-08-14T15:06:22;4.00;;;3.73;;
72109;SDS011;59983;52.010;5.420;2022-08-14T15:08:59;4.30;;;3.58;;
72109;SDS011;59983;52.010;5.420;2022-08-14T15:11:30;4.88;;;3.67;;
72109;SDS011;59983;52.010;5.420;2022-08-14T15:13:57;5.25;;;4.25;;
72109;SDS011;59983;52.010;5.420;2022-08-14T15:16:25;4.10;;;3.80;;
72109;SDS011;59983;52.010;5.420;2022-08-14T15:18:52;4.10;;;3.80;;
72109;SDS011;59983;52.010;5.420;2022-08-14T15:21:19;4.13;;;3.40;;
72109;SDS011;59983;52.010;5.420;2022-08-14T15:23:48;4.40;;;4.00;;
72109;SDS011;59983;52.010;5.420;2022-08-14T15:26:16;4.28;;;3.88;;
72109;SDS011;59983;52.010;5.420;2022-08-14T15:28:57;7.43;;;3.50;;
72109;SDS011;59983;52.010;5.420;2022-08-14T15:31:31;3.60;;;3.30;;
72109;SDS011;59983;52.010;5.420;2022-08-14T15:34:01;6.65;;;3.58;;